createdAt,value
2023-02-01T00:01:22.867Z,100.00
2023-02-01T00:03:51.659Z,100.00
2023-02-01T00:06:18.216Z,100.00
2023-02-01T00:08:49.294Z,100.00
2023-02-01T00:11:15.869Z,100.00
2023-02-01T00:13:42.923Z,100.00
2023-02-01T00:16:15.548Z,100.00
2023-02-01T00:18:44.297Z,100.00
2023-02-01T00:21:16.929Z,100.00
2023-02-01T00:23:45.841Z,100.00
2023-02-01T00:26:20.818Z,100.00
2023-02-01T00:28:47.415Z,100.00
2023-02-01T00:31:14.344Z,100.00
2023-02-01T00:33:40.975Z,100.00
2023-02-01T00:36:08.847Z,100.00
2023-02-01T00:38:40.013Z,100.00
2023-02-01T00:41:15.590Z,100.00
2023-02-01T00:43:42.930Z,100.00
2023-02-01T00:46:10.377Z,100.00
2023-02-01T00:48:41.504Z,100.00
2023-02-01T00:51:14.543Z,100.00
2023-02-01T00:53:41.214Z,100.00
2023-02-01T00:56:12.799Z,100.00
2023-02-01T00:58:45.233Z,100.00
2023-02-01T01:01:23.895Z,100.00
2023-02-01T01:03:58.491Z,100.00
2023-02-01T01:06:30.311Z,100.00
2023-02-01T01:09:01.178Z,100.00
2023-02-01T01:11:30.638Z,100.00
2023-02-01T01:14:00.745Z,100.00
2023-02-01T01:16:31.608Z,100.00
2023-02-01T01:19:00.759Z,100.00
2023-02-01T01:21:36.567Z,100.00
2023-02-01T01:24:05.948Z,100.00
2023-02-01T01:26:34.886Z,100.00
2023-02-01T01:29:01.461Z,100.00
2023-02-01T01:31:28.305Z,100.00
2023-02-01T01:33:57.505Z,100.00
2023-02-01T01:36:28.044Z,100.00
2023-02-01T01:38:56.942Z,100.00
2023-02-01T01:41:30.118Z,100.00
2023-02-01T01:43:59.516Z,100.00
2023-02-01T01:46:27.975Z,100.00
2023-02-01T01:49:12.476Z,100.00
2023-02-01T01:51:45.444Z,100.00
2023-02-01T01:54:23.579Z,100.00
2023-02-01T01:56:56.562Z,100.00
2023-02-01T01:59:24.926Z,100.00
2023-02-01T02:01:52.483Z,100.00
2023-02-01T02:04:22.189Z,100.00
2023-02-01T02:06:57.997Z,100.00
2023-02-01T02:09:26.817Z,100.00
2023-02-01T02:11:56.069Z,100.00
2023-02-01T02:14:30.792Z,100.00
2023-02-01T02:17:19.664Z,100.00
2023-02-01T02:20:01.556Z,100.00
2023-02-01T02:23:08.723Z,100.00
2023-02-01T02:25:48.630Z,100.00
2023-02-01T02:28:52.554Z,100.00
2023-02-01T02:31:45.300Z,100.00
2023-02-01T02:34:40.814Z,100.00
2023-02-01T02:37:41.371Z,100.00
2023-02-01T02:40:29.360Z,100.00
2023-02-01T02:43:25.695Z,100.00
2023-02-01T02:46:17.724Z,100.00
2023-02-01T02:49:16.230Z,100.00
2023-02-01T02:52:09.247Z,100.00
2023-02-01T02:54:53.055Z,100.00
2023-02-01T02:57:44.246Z,100.00
2023-02-01T03:00:34.534Z,100.00
2023-02-01T03:03:22.629Z,100.00
2023-02-01T03:05:53.075Z,100.00
2023-02-01T03:08:27.793Z,100.00
2023-02-01T03:11:03.499Z,100.00
2023-02-01T03:14:01.066Z,100.00
2023-02-01T03:16:47.415Z,100.00
2023-02-01T03:19:36.287Z,100.00
2023-02-01T03:22:17.761Z,100.00
2023-02-01T03:25:03.318Z,100.00
2023-02-01T03:27:35.940Z,100.00
2023-02-01T03:30:21.799Z,100.00
2023-02-01T03:33:01.804Z,100.00
2023-02-01T03:35:44.393Z,100.00
2023-02-01T03:38:22.135Z,100.00
2023-02-01T03:40:56.556Z,100.00
2023-02-01T03:43:28.892Z,100.00
2023-02-01T03:46:02.180Z,100.00
2023-02-01T03:48:32.638Z,100.00
2023-02-01T03:51:04.533Z,100.00
2023-02-01T03:53:37.773Z,100.00
2023-02-01T03:56:04.784Z,100.00
2023-02-01T03:58:31.497Z,100.00
2023-02-01T04:01:05.460Z,100.00
2023-02-01T04:03:35.088Z,100.00
2023-02-01T04:06:01.630Z,100.00
2023-02-01T04:08:28.392Z,100.00
2023-02-01T04:10:55.028Z,100.00
2023-02-01T04:13:30.715Z,100.00
2023-02-01T04:15:57.243Z,100.00
2023-02-01T04:18:25.867Z,100.00
2023-02-01T04:20:52.392Z,100.00
2023-02-01T04:23:18.962Z,100.00
2023-02-01T04:25:45.636Z,100.00
2023-02-01T04:28:14.690Z,100.00
2023-02-01T04:30:43.875Z,100.00
2023-02-01T04:33:15.212Z,100.00
2023-02-01T04:35:41.920Z,100.00
2023-02-01T04:38:13.220Z,100.00
2023-02-01T04:40:42.249Z,100.00
2023-02-01T04:43:09.123Z,100.00
2023-02-01T04:45:40.170Z,100.00
2023-02-01T04:48:14.039Z,100.00
2023-02-01T04:50:42.857Z,100.00
2023-02-01T04:53:11.742Z,100.00
2023-02-01T04:55:43.124Z,100.00
2023-02-01T04:58:12.370Z,100.00
2023-02-01T05:00:39.135Z,100.00
2023-02-01T05:03:08.085Z,100.00
2023-02-01T05:05:34.653Z,100.00
2023-02-01T05:08:01.231Z,100.00
2023-02-01T05:10:27.881Z,100.00
2023-02-01T05:13:13.129Z,100.00
2023-02-01T05:15:42.432Z,100.00
2023-02-01T05:18:09.178Z,100.00
2023-02-01T05:20:35.756Z,100.00
2023-02-01T05:23:02.306Z,100.00
2023-02-01T05:25:31.882Z,100.00
2023-02-01T05:27:58.423Z,100.00
2023-02-01T05:30:27.173Z,100.00
2023-02-01T05:32:58.723Z,100.00
2023-02-01T05:35:27.582Z,100.00
2023-02-01T05:37:56.904Z,100.00
2023-02-01T05:40:28.253Z,100.00
2023-02-01T05:42:57.043Z,100.00
2023-02-01T05:45:26.390Z,100.00
2023-02-01T05:47:52.922Z,100.00
2023-02-01T05:50:22.211Z,100.00
2023-02-01T05:52:48.911Z,100.00
2023-02-01T05:55:15.561Z,100.00
2023-02-01T05:57:42.182Z,100.00
2023-02-01T06:00:12.112Z,100.00
2023-02-01T06:02:38.731Z,100.00
2023-02-01T06:05:08.436Z,100.00
2023-02-01T06:07:37.312Z,100.00
2023-02-01T06:10:04.312Z,100.00
2023-02-01T06:12:33.150Z,100.00
2023-02-01T06:15:04.426Z,100.00
2023-02-01T06:17:35.845Z,100.00
2023-02-01T06:20:02.414Z,100.00
2023-02-01T06:22:31.026Z,100.00
2023-02-01T06:24:59.216Z,100.00
2023-02-01T06:27:29.204Z,100.00
2023-02-01T06:29:56.270Z,100.00
2023-02-01T06:32:23.991Z,100.00
2023-02-01T06:34:50.725Z,100.00
2023-02-01T06:37:17.344Z,100.00
2023-02-01T06:39:43.888Z,100.00
2023-02-01T06:42:10.602Z,100.00
2023-02-01T06:44:37.183Z,100.00
2023-02-01T06:47:09.255Z,100.00
2023-02-01T06:49:41.416Z,100.00
2023-02-01T06:52:08.006Z,100.00
2023-02-01T06:54:38.439Z,100.00
2023-02-01T06:57:07.267Z,100.00
2023-02-01T06:59:33.820Z,100.00
2023-02-01T07:02:00.394Z,100.00
2023-02-01T07:04:27.029Z,100.00
2023-02-01T07:06:53.578Z,100.00
2023-02-01T07:09:22.850Z,100.00
2023-02-01T07:11:49.419Z,100.00
2023-02-01T07:14:15.959Z,100.00
2023-02-01T07:16:42.454Z,100.00
2023-02-01T07:19:09.107Z,100.00
2023-02-01T07:21:35.653Z,100.00
2023-02-01T07:24:05.000Z,100.00
2023-02-01T07:26:33.768Z,100.00
2023-02-01T07:29:00.905Z,100.00
2023-02-01T07:31:29.953Z,100.00
2023-02-01T07:33:59.312Z,100.00
2023-02-01T07:36:28.431Z,100.00
2023-02-01T07:38:56.905Z,100.00
2023-02-01T07:41:25.823Z,100.00
2023-02-01T07:43:58.884Z,100.00
2023-02-01T07:46:30.439Z,100.00
2023-02-01T07:48:59.419Z,100.00
2023-02-01T07:51:28.473Z,100.00
2023-02-01T07:53:56.420Z,100.00
2023-02-01T07:56:26.237Z,100.00
2023-02-01T07:58:57.156Z,100.00
2023-02-01T08:01:28.608Z,100.00
2023-02-01T08:04:01.944Z,100.00
2023-02-01T08:06:33.316Z,100.00
2023-02-01T08:09:02.980Z,100.00
2023-02-01T08:11:32.626Z,100.00
2023-02-01T08:14:01.927Z,100.00
2023-02-01T08:16:28.601Z,100.00
2023-02-01T08:18:55.477Z,100.00
2023-02-01T08:21:26.765Z,100.00
2023-02-01T08:23:53.971Z,100.00
2023-02-01T08:26:23.581Z,100.00
2023-02-01T08:28:58.367Z,100.00
2023-02-01T08:31:29.781Z,100.00
2023-02-01T08:34:01.767Z,100.00
2023-02-01T08:36:32.143Z,100.00
2023-02-01T08:38:58.716Z,100.00
2023-02-01T08:41:28.098Z,100.00
2023-02-01T08:43:56.893Z,100.00
2023-02-01T08:46:24.849Z,100.00
2023-02-01T08:48:52.212Z,100.00
2023-02-01T08:51:20.898Z,100.00
2023-02-01T08:53:50.315Z,100.00
2023-02-01T08:56:18.959Z,100.00
2023-02-01T08:58:48.140Z,100.00
2023-02-01T09:01:17.803Z,100.00
2023-02-01T09:03:44.673Z,100.00
2023-02-01T09:06:14.005Z,100.00
2023-02-01T09:08:43.278Z,100.00
2023-02-01T09:11:16.589Z,100.00
2023-02-01T09:13:43.797Z,100.00
2023-02-01T09:16:13.576Z,100.00
2023-02-01T09:18:55.353Z,100.00
2023-02-01T09:21:28.020Z,100.00
2023-02-01T09:23:54.839Z,100.00
2023-02-01T09:26:26.481Z,100.00
2023-02-01T09:28:57.850Z,100.00
2023-02-01T09:31:27.663Z,100.00
2023-02-01T09:33:54.333Z,100.00
2023-02-01T09:36:21.010Z,100.00
2023-02-01T09:38:52.747Z,100.00
2023-02-01T09:41:22.758Z,100.00
2023-02-01T09:44:19.799Z,100.00
2023-02-01T09:46:47.014Z,100.00
2023-02-01T09:49:23.266Z,100.00
2023-02-01T09:51:53.244Z,100.00
2023-02-01T09:54:23.915Z,100.00
2023-02-01T09:57:12.018Z,100.00
2023-02-01T09:59:53.216Z,100.00
2023-02-01T10:02:28.474Z,100.00
2023-02-01T10:04:59.971Z,100.00
2023-02-01T10:07:29.335Z,100.00
2023-02-01T10:10:31.235Z,100.00
2023-02-01T10:13:00.428Z,100.00
2023-02-01T10:15:54.148Z,100.00
2023-02-01T10:18:59.992Z,100.00
2023-02-01T10:21:53.202Z,100.00
2023-02-01T10:24:31.208Z,100.00
2023-02-01T10:27:11.203Z,100.00
2023-02-01T10:29:44.635Z,100.00
2023-02-01T10:32:22.247Z,100.00
2023-02-01T10:35:03.723Z,100.00
2023-02-01T10:37:34.955Z,100.00
2023-02-01T10:40:14.269Z,100.00
2023-02-01T10:42:41.386Z,100.00
2023-02-01T10:45:13.410Z,100.00
2023-02-01T10:47:40.158Z,100.00
2023-02-01T10:50:16.759Z,100.00
2023-02-01T10:53:00.956Z,100.00
2023-02-01T10:55:41.485Z,100.00
2023-02-01T10:58:21.528Z,100.00
2023-02-01T11:01:06.369Z,100.00
2023-02-01T11:03:35.970Z,100.00
2023-02-01T11:06:25.139Z,100.00
2023-02-01T11:08:54.576Z,96.98
2023-02-01T11:11:22.444Z,95.52
2023-02-01T11:14:02.526Z,96.00
2023-02-01T11:16:38.002Z,97.36
2023-02-01T11:19:07.188Z,97.00
2023-02-01T11:21:38.976Z,95.78
2023-02-01T11:24:10.206Z,96.80
2023-02-01T11:26:45.537Z,99.82
2023-02-01T11:29:18.641Z,99.93
2023-02-01T11:31:46.820Z,97.97
2023-02-01T11:34:23.525Z,93.93
2023-02-01T11:36:50.870Z,93.48
2023-02-01T11:39:31.087Z,93.04
2023-02-01T11:42:06.598Z,94.18
2023-02-01T11:44:37.696Z,91.91
2023-02-01T11:47:34.471Z,95.22
2023-02-01T11:50:15.493Z,98.07
2023-02-01T11:53:20.438Z,97.98
2023-02-01T11:55:55.747Z,96.39
2023-02-01T11:58:25.323Z,97.33
2023-02-01T12:01:03.859Z,97.95
2023-02-01T12:03:45.305Z,98.30
2023-02-01T12:06:30.943Z,98.56
2023-02-01T12:09:03.537Z,97.34
2023-02-01T12:11:54.182Z,95.58
2023-02-01T12:14:29.120Z,95.13
2023-02-01T12:16:58.637Z,95.64
2023-02-01T12:19:36.639Z,96.42
2023-02-01T12:22:24.027Z,97.12
2023-02-01T12:25:25.305Z,98.49
2023-02-01T12:28:10.175Z,95.27
2023-02-01T12:30:44.735Z,92.86
2023-02-01T12:33:23.468Z,92.71
2023-02-01T12:36:13.837Z,90.16
2023-02-01T12:38:48.114Z,88.50
2023-02-01T12:41:21.905Z,86.99
2023-02-01T12:44:26.119Z,86.62
2023-02-01T12:47:22.878Z,83.77
2023-02-01T12:49:49.410Z,80.90
2023-02-01T12:52:36.322Z,79.91
2023-02-01T12:55:37.435Z,77.34
2023-02-01T12:58:22.472Z,79.03
2023-02-01T13:01:01.735Z,77.22
2023-02-01T13:03:45.451Z,76.56
2023-02-01T13:06:23.071Z,76.19
2023-02-01T13:09:01.009Z,76.47
2023-02-01T13:11:35.160Z,77.66
2023-02-01T13:14:20.385Z,76.65
2023-02-01T13:16:56.264Z,75.56
2023-02-01T13:19:30.534Z,76.44
2023-02-01T13:22:12.907Z,76.47
2023-02-01T13:24:54.504Z,77.82
2023-02-01T13:27:23.647Z,76.48
2023-02-01T13:30:00.121Z,76.82
2023-02-01T13:33:50.249Z,75.71
2023-02-01T13:35:57.832Z,75.46
2023-02-01T13:38:43.013Z,76.81
2023-02-01T13:41:29.685Z,75.41
2023-02-01T13:44:38.432Z,73.49
2023-02-01T13:47:17.971Z,74.99
2023-02-01T13:49:44.624Z,74.24
2023-02-01T13:52:28.690Z,75.03
2023-02-01T13:55:17.125Z,76.55
2023-02-01T13:57:45.999Z,75.18
2023-02-01T14:00:37.865Z,75.75
2023-02-01T14:03:07.531Z,76.45
2023-02-01T14:05:36.785Z,75.92
2023-02-01T14:08:13.889Z,76.31
2023-02-01T14:10:51.789Z,75.89
2023-02-01T14:13:37.359Z,73.42
2023-02-01T14:16:03.972Z,71.75
2023-02-01T14:18:42.023Z,74.15
2023-02-01T14:21:24.655Z,73.13
2023-02-01T14:23:56.289Z,72.67
2023-02-01T14:26:36.038Z,74.72
2023-02-01T14:29:21.265Z,75.97
2023-02-01T14:32:00.724Z,74.61
2023-02-01T14:34:44.103Z,74.13
2023-02-01T14:37:18.675Z,74.41
2023-02-01T14:39:54.568Z,75.49
2023-02-01T14:42:39.072Z,76.46
2023-02-01T14:45:20.662Z,75.52
2023-02-01T14:47:48.859Z,74.14
2023-02-01T14:50:22.478Z,72.67
2023-02-01T14:53:10.914Z,73.95
2023-02-01T14:55:43.371Z,74.71
2023-02-01T14:58:40.617Z,75.29
2023-02-01T15:01:24.797Z,75.09
2023-02-01T15:04:08.254Z,74.59
2023-02-01T15:06:37.981Z,74.83
2023-02-01T15:09:15.686Z,75.76
2023-02-01T15:11:58.791Z,77.24
2023-02-01T15:14:26.904Z,76.84
2023-02-01T15:16:56.488Z,76.67
2023-02-01T15:19:27.835Z,77.22
2023-02-01T15:21:56.431Z,76.62
2023-02-01T15:24:25.060Z,77.80
2023-02-01T15:26:53.528Z,77.89
2023-02-01T15:29:22.111Z,78.36
2023-02-01T15:31:53.310Z,79.26
2023-02-01T15:34:21.113Z,78.73
2023-02-01T15:37:02.389Z,78.74
2023-02-01T15:39:33.562Z,78.34
2023-02-01T15:42:16.599Z,80.09
2023-02-01T15:44:47.170Z,77.89
2023-02-01T15:47:27.157Z,77.35
2023-02-01T15:49:56.649Z,79.36
2023-02-01T15:52:43.104Z,79.05
2023-02-01T15:55:23.985Z,78.93
2023-02-01T15:57:52.665Z,79.76
2023-02-01T16:00:28.769Z,79.25
2023-02-01T16:03:00.639Z,79.33
2023-02-01T16:05:39.326Z,77.84
2023-02-01T16:08:13.465Z,78.31
2023-02-01T16:10:44.940Z,77.93
2023-02-01T16:13:12.226Z,77.85
2023-02-01T16:15:39.289Z,78.67
2023-02-01T16:18:08.863Z,78.51
2023-02-01T16:20:36.893Z,78.01
2023-02-01T16:23:04.961Z,78.03
2023-02-01T16:25:34.608Z,77.68
2023-02-01T16:28:03.336Z,78.76
2023-02-01T16:30:32.950Z,78.55
2023-02-01T16:33:01.194Z,79.73
2023-02-01T16:35:36.705Z,80.38
2023-02-01T16:38:09.718Z,78.92
2023-02-01T16:40:41.400Z,79.36
2023-02-01T16:43:25.079Z,79.99
2023-02-01T16:45:59.838Z,80.38
2023-02-01T16:48:29.392Z,78.30
2023-02-01T16:50:58.754Z,79.08
2023-02-01T16:53:29.189Z,79.20
2023-02-01T16:55:58.222Z,79.74
2023-02-01T16:58:27.042Z,78.19
2023-02-01T17:00:54.416Z,78.45
2023-02-01T17:03:24.200Z,79.55
2023-02-01T17:05:56.992Z,78.42
2023-02-01T17:08:35.110Z,78.08
2023-02-01T17:11:03.119Z,78.21
2023-02-01T17:13:29.869Z,78.81
2023-02-01T17:16:02.157Z,78.42
2023-02-01T17:18:34.064Z,78.75
2023-02-01T17:21:04.856Z,78.89
2023-02-01T17:23:35.129Z,78.34
2023-02-01T17:26:03.940Z,78.50
2023-02-01T17:28:30.604Z,78.93
2023-02-01T17:30:57.605Z,79.35
2023-02-01T17:33:27.312Z,78.52
2023-02-01T17:35:55.535Z,77.71
2023-02-01T17:38:22.549Z,78.34
2023-02-01T17:40:49.107Z,78.80
2023-02-01T17:43:24.041Z,78.40
2023-02-01T17:46:04.071Z,78.97
2023-02-01T17:48:33.106Z,79.25
2023-02-01T17:51:01.102Z,77.25
2023-02-01T17:53:30.901Z,79.48
2023-02-01T17:56:00.267Z,79.31
2023-02-01T17:58:26.849Z,79.05
2023-02-01T18:00:54.418Z,80.56
2023-02-01T18:03:23.758Z,80.09
2023-02-01T18:05:53.634Z,79.13
2023-02-01T18:08:33.250Z,79.63
2023-02-01T18:11:03.821Z,80.39
2023-02-01T18:13:32.172Z,79.45
2023-02-01T18:15:59.998Z,79.67
2023-02-01T18:18:33.780Z,80.90
2023-02-01T18:21:00.618Z,80.29
2023-02-01T18:23:27.166Z,80.06
2023-02-01T18:25:56.704Z,80.12
2023-02-01T18:28:23.235Z,79.83
2023-02-01T18:30:51.665Z,81.69
2023-02-01T18:33:21.031Z,82.14
2023-02-01T18:35:47.993Z,80.96
2023-02-01T18:38:15.233Z,81.35
2023-02-01T18:40:53.703Z,82.16
2023-02-01T18:43:21.355Z,82.09
2023-02-01T18:45:50.798Z,81.42
2023-02-01T18:48:22.354Z,81.37
2023-02-01T18:50:52.066Z,82.15
2023-02-01T18:53:21.077Z,81.77
2023-02-01T18:55:48.704Z,81.91
2023-02-01T18:58:20.021Z,82.27
2023-02-01T19:00:47.407Z,82.26
2023-02-01T19:03:15.773Z,81.92
2023-02-01T19:05:46.013Z,82.31
2023-02-01T19:08:15.645Z,82.67
2023-02-01T19:10:42.951Z,82.21
2023-02-01T19:13:13.532Z,82.65
2023-02-01T19:15:41.227Z,82.50
2023-02-01T19:18:11.685Z,81.63
2023-02-01T19:20:45.569Z,81.66
2023-02-01T19:23:13.764Z,83.40
2023-02-01T19:25:47.094Z,82.38
2023-02-01T19:28:14.814Z,82.48
2023-02-01T19:30:41.521Z,83.86
2023-02-01T19:33:12.918Z,83.10
2023-02-01T19:35:42.231Z,82.65
2023-02-01T19:38:11.390Z,82.79
2023-02-01T19:40:38.429Z,84.01
2023-02-01T19:43:05.032Z,82.62
2023-02-01T19:45:35.832Z,83.58
2023-02-01T19:48:07.504Z,84.49
2023-02-01T19:50:36.445Z,83.80
2023-02-01T19:53:03.039Z,83.47
2023-02-01T19:55:32.174Z,83.37
2023-02-01T19:58:02.458Z,83.03
2023-02-01T20:00:28.267Z,83.60
2023-02-01T20:02:54.943Z,83.19
2023-02-01T20:05:23.438Z,84.37
2023-02-01T20:07:52.411Z,84.44
2023-02-01T20:10:19.176Z,84.15
2023-02-01T20:12:51.184Z,83.69
2023-02-01T20:15:22.160Z,84.13
2023-02-01T20:17:48.916Z,84.92
2023-02-01T20:20:16.487Z,84.23
2023-02-01T20:22:45.312Z,84.54
2023-02-01T20:25:12.510Z,84.30
2023-02-01T20:27:39.922Z,84.02
2023-02-01T20:30:08.523Z,85.47
2023-02-01T20:32:37.263Z,85.99
2023-02-01T20:35:06.886Z,86.02
2023-02-01T20:37:36.940Z,86.75
2023-02-01T20:40:08.546Z,85.92
2023-02-01T20:42:37.904Z,86.36
2023-02-01T20:45:05.315Z,85.83
2023-02-01T20:47:36.744Z,86.49
2023-02-01T20:50:06.176Z,87.56
2023-02-01T20:52:34.953Z,86.59
2023-02-01T20:55:01.603Z,85.99
2023-02-01T20:57:33.042Z,86.89
2023-02-01T20:59:59.619Z,87.25
2023-02-01T21:02:26.463Z,87.24
2023-02-01T21:04:55.228Z,86.96
2023-02-01T21:07:24.360Z,86.64
2023-02-01T21:09:50.977Z,86.89
2023-02-01T21:12:17.613Z,87.25
2023-02-01T21:14:46.571Z,86.70
2023-02-01T21:17:13.249Z,86.78
2023-02-01T21:19:45.824Z,88.15
2023-02-01T21:22:13.914Z,88.94
2023-02-01T21:24:41.308Z,87.83
2023-02-01T21:27:13.411Z,88.05
2023-02-01T21:29:39.901Z,87.42
2023-02-01T21:32:09.966Z,88.29
2023-02-01T21:34:41.047Z,87.84
2023-02-01T21:37:08.343Z,88.16
2023-02-01T21:39:34.968Z,88.80
2023-02-01T21:42:21.953Z,88.14
2023-02-01T21:44:48.603Z,89.55
2023-02-01T21:47:21.315Z,89.82
2023-02-01T21:49:56.277Z,90.09
2023-02-01T21:52:23.574Z,90.85
2023-02-01T21:54:56.886Z,90.12
2023-02-01T21:57:23.407Z,90.47
2023-02-01T21:59:52.048Z,90.34
2023-02-01T22:02:18.962Z,88.83
2023-02-01T22:04:50.383Z,89.97
2023-02-01T22:07:19.563Z,89.27
2023-02-01T22:09:46.229Z,89.17
2023-02-01T22:12:14.288Z,89.32
2023-02-01T22:14:44.600Z,89.39
2023-02-01T22:17:14.062Z,89.20
2023-02-01T22:19:43.496Z,87.63
2023-02-01T22:22:12.394Z,89.59
2023-02-01T22:24:41.234Z,91.36
2023-02-01T22:27:13.528Z,95.06
2023-02-01T22:29:42.044Z,95.84
2023-02-01T22:32:08.894Z,94.30
2023-02-01T22:34:39.975Z,94.57
2023-02-01T22:37:10.205Z,94.39
2023-02-01T22:39:37.731Z,94.95
2023-02-01T22:42:07.101Z,93.69
2023-02-01T22:44:33.626Z,94.31
2023-02-01T22:47:00.168Z,93.09
2023-02-01T22:49:29.255Z,92.70
2023-02-01T22:51:58.281Z,91.81
2023-02-01T22:54:24.823Z,90.85
2023-02-01T22:56:51.387Z,90.61
2023-02-01T22:59:20.220Z,92.07
2023-02-01T23:01:46.894Z,91.72
2023-02-01T23:04:17.241Z,91.06
2023-02-01T23:06:46.287Z,92.70
2023-02-01T23:09:25.267Z,92.69
2023-02-01T23:11:55.181Z,92.82
2023-02-01T23:14:24.728Z,92.59
2023-02-01T23:16:53.793Z,93.32
2023-02-01T23:19:22.722Z,93.48
2023-02-01T23:21:49.701Z,93.21
2023-02-01T23:24:18.634Z,93.84
2023-02-01T23:26:47.552Z,93.80
2023-02-01T23:29:18.660Z,94.05
2023-02-01T23:31:45.308Z,94.14
2023-02-01T23:34:14.119Z,94.94
2023-02-01T23:36:40.721Z,95.17
2023-02-01T23:39:07.354Z,95.04
2023-02-01T23:41:36.161Z,96.00
2023-02-01T23:44:02.876Z,96.30
2023-02-01T23:46:33.448Z,97.81
2023-02-01T23:49:01.139Z,100.00
2023-02-01T23:51:28.622Z,100.00
2023-02-01T23:53:55.826Z,100.00
2023-02-01T23:56:28.449Z,100.00
2023-02-01T23:58:56.726Z,100.00
